WY46 weather

Cheyenne Whiskey Heliport
Cheyenne, Wyoming, United States

Public forecast

Using degrees Fahrenheit for public forecast. Weather courtesy of forecast.io.

Closest aviation weather report (METAR) to Cheyenne Whiskey Heliport

Closest report is Cheyenne Regional Jerry Olson Field, 0.2 nm (0.3 km) ESE. Retrieved 2019/10/23 11:40 UTC (0 seconds ago):

KCYS 231140Z AUTO 31010G17KT 3SM -SN BR BKN026 OVC085 01/M01 A3005 RMK AO2 P0000 T00061011

Closest aviation forecast (TAF) to Cheyenne Whiskey Heliport

Closest forecast is Cheyenne Regional Jerry Olson Field, 0.2 nm (0.3 km) ESE. Retrieved 2019/10/23 06:28 UTC (5 hours ago):

TAF KCYS 230526Z 2306/2406 28020G30KT P6SM FEW050 FM230900 34015G25KT P6SM VCSH SCT030 BKN060 FM231400 31025G35KT P6SM SCT080 SCT200 FM240100 36010KT P6SM OVC035